WRC7245 PLCH-PHKO
Flight info
| Callsign | WRC7245 |
|---|---|
| Flight time | N/A |
| Altitude | 35000 |
| Route | N0470F350 RAYOR DCT TARPP B595 KOA V5 MYNAH V11 UPP |
| Aircraft | A332/H-DFGSW/L |
Departure
| Time | 2026-04-26 10:24 |
|---|---|
| Airport | Cassidy International Airport (PLCH) |
Arrival
| Time | N/A |
|---|---|
| Airport | Ellison Onizuka Kona International Airport at Keāhole (PHKO) |
| Time | Latitude | Longitude | Altitude | Speed | Heading |
|---|---|---|---|---|---|
| 2026-04-26 10:04 | 1.98366 | -157.35637 | 28 ft | 0 kts | 141° |
| 2026-04-26 10:15 | 1.98367 | -157.35638 | 28 ft | 1 kts | 144° |
| 2026-04-26 10:15 | 1.98377 | -157.35641 | 28 ft | 2 kts | 183° |
| 2026-04-26 10:15 | 1.98392 | -157.35640 | 28 ft | 1 kts | 180° |
| 2026-04-26 10:15 | 1.98400 | -157.35640 | 28 ft | 1 kts | 155° |
| 2026-04-26 10:16 | 1.98408 | -157.35648 | 28 ft | 1 kts | 97° |
| 2026-04-26 10:16 | 1.98407 | -157.35658 | 28 ft | 0 kts | 52° |
| 2026-04-26 10:16 | 1.98403 | -157.35663 | 28 ft | 0 kts | 52° |
| 2026-04-26 10:20 | 1.98452 | -157.35600 | 27 ft | 18 kts | 52° |
| 2026-04-26 10:20 | 1.98507 | -157.35529 | 26 ft | 19 kts | 53° |
| 2026-04-26 10:20 | 1.98609 | -157.35440 | 25 ft | 10 kts | 311° |
| 2026-04-26 10:20 | 1.98626 | -157.35550 | 26 ft | 23 kts | 270° |
| 2026-04-26 10:21 | 1.98626 | -157.35715 | 28 ft | 23 kts | 270° |
| 2026-04-26 10:21 | 1.98621 | -157.35840 | 28 ft | 13 kts | 253° |
| 2026-04-26 10:21 | 1.98600 | -157.35925 | 28 ft | 11 kts | 281° |
| 2026-04-26 10:21 | 1.98602 | -157.36000 | 28 ft | 10 kts | 265° |
| 2026-04-26 10:22 | 1.98622 | -157.35998 | 28 ft | 6 kts | 79° |
| 2026-04-26 10:22 | 1.98623 | -157.35994 | 28 ft | 0 kts | 81° |
| 2026-04-26 10:23 | 1.98627 | -157.35707 | 29 ft | 89 kts | 91° |
| 2026-04-26 10:23 | 1.98629 | -157.34787 | 26 ft | 173 kts | 91° |
| 2026-04-26 10:24 | 1.98631 | -157.33517 | 563 ft | 183 kts | 88° |
| 2026-04-26 10:24 | 1.98562 | -157.32332 | 1560 ft | 170 kts | 90° |
| 2026-04-26 10:24 | 1.98548 | -157.31201 | 2290 ft | 167 kts | 90° |
| 2026-04-26 10:24 | 1.98542 | -157.29988 | 2664 ft | 181 kts | 90° |
| 2026-04-26 10:25 | 1.98593 | -157.28694 | 3035 ft | 194 kts | 78° |
| 2026-04-26 10:25 | 1.99169 | -157.27385 | 3393 ft | 216 kts | 64° |
| 2026-04-26 10:25 | 1.99909 | -157.26028 | 3965 ft | 233 kts | 63° |
| 2026-04-26 10:25 | 2.00743 | -157.24585 | 4554 ft | 250 kts | 62° |
| 2026-04-26 10:26 | 2.01639 | -157.23068 | 5333 ft | 258 kts | 62° |
| 2026-04-26 10:26 | 2.02554 | -157.21529 | 6244 ft | 260 kts | 62° |
| 2026-04-26 10:26 | 2.03475 | -157.19983 | 7092 ft | 264 kts | 62° |
| 2026-04-26 10:26 | 2.04649 | -157.18565 | 7898 ft | 274 kts | 41° |
| 2026-04-26 10:27 | 2.06427 | -157.17787 | 8683 ft | 288 kts | 14° |
| 2026-04-26 10:27 | 2.08457 | -157.17883 | 9460 ft | 300 kts | 348° |
| 2026-04-26 10:27 | 2.10322 | -157.18860 | 10179 ft | 312 kts | 323° |
| 2026-04-26 10:27 | 2.11727 | -157.20561 | 10595 ft | 333 kts | 299° |
| 2026-04-26 10:28 | 2.12435 | -157.22841 | 10909 ft | 353 kts | 276° |
| 2026-04-26 10:28 | 2.12294 | -157.25323 | 11183 ft | 370 kts | 261° |
| 2026-04-26 10:28 | 2.12292 | -157.27951 | 11411 ft | 388 kts | 280° |
| 2026-04-26 10:28 | 2.12966 | -157.30579 | 11920 ft | 393 kts | 284° |
| 2026-04-26 10:29 | 2.13562 | -157.33260 | 12615 ft | 394 kts | 283° |
| 2026-04-26 10:29 | 2.14139 | -157.35931 | 13277 ft | 396 kts | 283° |
| 2026-04-26 10:29 | 2.14712 | -157.38603 | 13824 ft | 400 kts | 283° |
| 2026-04-26 10:29 | 2.15302 | -157.41359 | 14348 ft | 405 kts | 282° |
| 2026-04-26 10:30 | 2.15889 | -157.44099 | 14886 ft | 408 kts | 282° |
| 2026-04-26 10:30 | 2.16482 | -157.46870 | 15383 ft | 412 kts | 282° |
| 2026-04-26 10:30 | 2.17081 | -157.49669 | 15887 ft | 415 kts | 282° |
| 2026-04-26 10:30 | 2.17683 | -157.52484 | 16415 ft | 417 kts | 282° |
| 2026-04-26 10:31 | 2.18297 | -157.55351 | 16890 ft | 421 kts | 282° |
| 2026-04-26 10:31 | 2.18912 | -157.58223 | 17345 ft | 424 kts | 282° |
| 2026-04-26 10:31 | 2.19529 | -157.61110 | 17819 ft | 426 kts | 282° |
| 2026-04-26 10:31 | 2.20143 | -157.63979 | 18317 ft | 428 kts | 282° |
| 2026-04-26 10:32 | 2.20770 | -157.66910 | 18779 ft | 430 kts | 281° |
| 2026-04-26 10:32 | 2.21392 | -157.69817 | 19186 ft | 432 kts | 281° |
| 2026-04-26 10:32 | 2.22021 | -157.72754 | 19622 ft | 434 kts | 281° |
| 2026-04-26 10:32 | 2.22656 | -157.75728 | 20012 ft | 436 kts | 281° |
| 2026-04-26 10:33 | 2.23291 | -157.78688 | 20406 ft | 438 kts | 281° |
| 2026-04-26 10:33 | 2.23926 | -157.81656 | 20773 ft | 440 kts | 281° |
| 2026-04-26 10:33 | 2.24565 | -157.84647 | 21150 ft | 442 kts | 281° |
| 2026-04-26 10:33 | 2.25210 | -157.87663 | 21518 ft | 443 kts | 280° |
| 2026-04-26 10:34 | 2.25849 | -157.90654 | 21796 ft | 447 kts | 280° |
| 2026-04-26 10:34 | 2.26501 | -157.93700 | 22157 ft | 447 kts | 280° |
| 2026-04-26 10:34 | 2.27151 | -157.96747 | 22525 ft | 448 kts | 280° |
| 2026-04-26 10:34 | 2.27802 | -157.99789 | 22836 ft | 450 kts | 280° |
| 2026-04-26 10:35 | 2.28455 | -158.02850 | 23189 ft | 451 kts | 280° |
| 2026-04-26 10:35 | 2.29109 | -158.05908 | 23569 ft | 451 kts | 280° |
| 2026-04-26 10:35 | 2.29768 | -158.08998 | 23943 ft | 451 kts | 280° |
| 2026-04-26 10:35 | 2.30419 | -158.12039 | 24280 ft | 452 kts | 280° |
| 2026-04-26 10:36 | 2.31075 | -158.15115 | 24630 ft | 453 kts | 280° |
| 2026-04-26 10:36 | 2.31734 | -158.18202 | 24957 ft | 454 kts | 280° |
| 2026-04-26 10:36 | 2.32396 | -158.21300 | 25284 ft | 455 kts | 280° |
| 2026-04-26 10:36 | 2.33056 | -158.24387 | 25633 ft | 455 kts | 280° |
| 2026-04-26 10:37 | 2.33709 | -158.27449 | 25995 ft | 456 kts | 280° |
| 2026-04-26 10:37 | 2.34372 | -158.30557 | 26290 ft | 457 kts | 280° |
| 2026-04-26 10:37 | 2.35040 | -158.33688 | 26632 ft | 458 kts | 280° |
| 2026-04-26 10:37 | 2.35702 | -158.36789 | 26907 ft | 459 kts | 280° |
| 2026-04-26 10:38 | 2.36375 | -158.39941 | 27190 ft | 461 kts | 280° |
| 2026-04-26 10:38 | 2.37038 | -158.43051 | 27507 ft | 462 kts | 280° |
| 2026-04-26 10:38 | 2.37704 | -158.46166 | 27787 ft | 463 kts | 281° |
| 2026-04-26 10:38 | 2.38794 | -158.49206 | 27978 ft | 471 kts | 295° |
| 2026-04-26 10:39 | 2.40744 | -158.51888 | 28268 ft | 477 kts | 311° |
| 2026-04-26 10:39 | 2.43367 | -158.53932 | 28605 ft | 482 kts | 327° |
| 2026-04-26 10:39 | 2.46474 | -158.55206 | 28952 ft | 487 kts | 342° |
| 2026-04-26 10:39 | 2.49837 | -158.55608 | 29369 ft | 491 kts | 358° |
| 2026-04-26 10:40 | 2.53202 | -158.55095 | 29849 ft | 491 kts | 14° |
| 2026-04-26 10:40 | 2.56361 | -158.53683 | 30326 ft | 492 kts | 30° |
| 2026-04-26 10:40 | 2.58994 | -158.51523 | 30755 ft | 493 kts | 45° |
| 2026-04-26 10:40 | 2.60965 | -158.48740 | 31180 ft | 494 kts | 61° |
| 2026-04-26 10:41 | 2.62127 | -158.45531 | 31618 ft | 493 kts | 77° |
| 2026-04-26 10:41 | 2.62392 | -158.42136 | 32040 ft | 492 kts | 92° |
| 2026-04-26 10:41 | 2.61909 | -158.38770 | 32420 ft | 491 kts | 99° |
| 2026-04-26 10:41 | 2.61327 | -158.35399 | 32807 ft | 490 kts | 99° |
| 2026-04-26 10:42 | 2.60754 | -158.32053 | 33252 ft | 489 kts | 98° |
| 2026-04-26 10:42 | 2.60579 | -158.28638 | 33633 ft | 487 kts | 84° |
| 2026-04-26 10:42 | 2.61307 | -158.25375 | 34002 ft | 483 kts | 69° |
| 2026-04-26 10:42 | 2.62473 | -158.22240 | 34496 ft | 481 kts | 68° |
| 2026-04-26 10:43 | 2.63606 | -158.19115 | 34886 ft | 480 kts | 68° |
| 2026-04-26 10:43 | 2.64737 | -158.15977 | 34796 ft | 482 kts | 68° |
| 2026-04-26 10:43 | 2.66982 | -158.09734 | 34858 ft | 477 kts | 68° |
| 2026-04-26 10:44 | 2.69226 | -158.03488 | 34877 ft | 476 kts | 69° |
| 2026-04-26 10:44 | 2.71475 | -157.97227 | 34844 ft | 476 kts | 69° |
| 2026-04-26 10:45 | 2.73700 | -157.91032 | 34812 ft | 477 kts | 69° |
| 2026-04-26 10:45 | 2.75948 | -157.84775 | 34828 ft | 478 kts | 69° |
| 2026-04-26 10:46 | 2.78179 | -157.78555 | 34862 ft | 477 kts | 68° |
| 2026-04-26 10:46 | 2.80416 | -157.72327 | 34794 ft | 477 kts | 69° |
| 2026-04-26 10:47 | 2.82662 | -157.66067 | 34744 ft | 478 kts | 69° |
| 2026-04-26 10:47 | 2.84893 | -157.59850 | 34754 ft | 477 kts | 69° |
| 2026-04-26 10:48 | 2.87139 | -157.53589 | 34730 ft | 477 kts | 69° |
| 2026-04-26 10:48 | 2.89366 | -157.47377 | 34734 ft | 478 kts | 69° |
| 2026-04-26 10:49 | 2.91608 | -157.41126 | 34762 ft | 477 kts | 68° |
| 2026-04-26 10:49 | 2.93847 | -157.34880 | 34742 ft | 477 kts | 69° |
| 2026-04-26 10:50 | 2.95708 | -157.29692 | 34720 ft | 479 kts | 69° |
| 2026-04-26 10:50 | 2.98338 | -157.22353 | 34731 ft | 479 kts | 69° |
| 2026-04-26 10:51 | 3.01690 | -157.12994 | 34722 ft | 479 kts | 69° |
| 2026-04-26 10:52 | 3.03934 | -157.06731 | 34761 ft | 478 kts | 69° |
| 2026-04-26 10:52 | 3.06173 | -157.00479 | 34784 ft | 478 kts | 69° |
| 2026-04-26 10:53 | 3.08411 | -156.94229 | 34752 ft | 478 kts | 69° |
| 2026-04-26 10:53 | 3.10645 | -156.87993 | 34740 ft | 479 kts | 69° |
| 2026-04-26 10:54 | 3.14006 | -156.78598 | 34742 ft | 479 kts | 69° |
| 2026-04-26 10:54 | 3.16260 | -156.72301 | 34754 ft | 479 kts | 69° |
| 2026-04-26 10:55 | 3.18495 | -156.66051 | 34785 ft | 478 kts | 69° |
| 2026-04-26 10:55 | 3.20727 | -156.59810 | 34772 ft | 478 kts | 69° |
| 2026-04-26 10:56 | 3.22971 | -156.53536 | 34744 ft | 479 kts | 69° |
| 2026-04-26 10:56 | 3.25203 | -156.47293 | 34754 ft | 480 kts | 69° |
| 2026-04-26 10:57 | 3.27447 | -156.41013 | 34785 ft | 479 kts | 69° |
| 2026-04-26 10:57 | 3.29692 | -156.34732 | 34775 ft | 478 kts | 69° |
| 2026-04-26 10:58 | 3.31921 | -156.28493 | 34738 ft | 479 kts | 69° |
| 2026-04-26 10:58 | 3.34163 | -156.22215 | 34732 ft | 480 kts | 69° |
| 2026-04-26 10:59 | 3.36405 | -156.15936 | 34758 ft | 479 kts | 69° |
| 2026-04-26 10:59 | 3.38643 | -156.09668 | 34768 ft | 478 kts | 69° |
| 2026-04-26 11:00 | 3.40878 | -156.03406 | 34737 ft | 479 kts | 69° |
| 2026-04-26 11:00 | 3.43118 | -155.97128 | 34724 ft | 481 kts | 69° |
| 2026-04-26 11:01 | 3.45351 | -155.90868 | 34747 ft | 480 kts | 69° |
| 2026-04-26 11:01 | 3.47598 | -155.84572 | 34767 ft | 479 kts | 69° |
| 2026-04-26 11:02 | 3.49836 | -155.78296 | 34739 ft | 479 kts | 69° |
| 2026-04-26 11:02 | 3.52078 | -155.72006 | 34720 ft | 480 kts | 69° |
| 2026-04-26 11:03 | 3.54317 | -155.65727 | 34742 ft | 480 kts | 69° |
| 2026-04-26 11:03 | 3.56558 | -155.59436 | 34767 ft | 480 kts | 69° |
| 2026-04-26 11:04 | 3.58790 | -155.53174 | 34742 ft | 480 kts | 69° |
| 2026-04-26 11:04 | 3.61027 | -155.46892 | 34721 ft | 480 kts | 69° |
| 2026-04-26 11:05 | 3.63278 | -155.40573 | 34739 ft | 481 kts | 69° |
| 2026-04-26 11:05 | 3.65500 | -155.34331 | 34768 ft | 479 kts | 69° |
| 2026-04-26 11:06 | 3.67735 | -155.28050 | 34747 ft | 479 kts | 69° |
| 2026-04-26 11:06 | 3.69975 | -155.21758 | 34715 ft | 479 kts | 69° |
| 2026-04-26 11:07 | 3.72213 | -155.15465 | 34725 ft | 480 kts | 69° |
| 2026-04-26 11:07 | 3.74447 | -155.09184 | 34757 ft | 481 kts | 69° |
| 2026-04-26 11:08 | 3.76688 | -155.02879 | 34754 ft | 480 kts | 69° |
| 2026-04-26 11:08 | 3.78920 | -154.96603 | 34729 ft | 481 kts | 69° |
| 2026-04-26 11:09 | 3.81148 | -154.90332 | 34749 ft | 481 kts | 69° |
| 2026-04-26 11:09 | 3.83388 | -154.84029 | 34780 ft | 480 kts | 69° |
| 2026-04-26 11:10 | 3.85618 | -154.77750 | 34768 ft | 479 kts | 69° |
| 2026-04-26 11:10 | 3.87859 | -154.71442 | 34742 ft | 480 kts | 69° |
| 2026-04-26 11:11 | 3.90085 | -154.65170 | 34753 ft | 481 kts | 68° |
| 2026-04-26 11:11 | 3.92325 | -154.58858 | 34783 ft | 481 kts | 69° |
| 2026-04-26 11:12 | 3.94566 | -154.52542 | 34770 ft | 481 kts | 68° |
| 2026-04-26 11:12 | 3.96806 | -154.46230 | 34742 ft | 482 kts | 68° |
| 2026-04-26 11:13 | 3.99033 | -154.39951 | 34753 ft | 483 kts | 68° |
| 2026-04-26 11:13 | 4.01276 | -154.33624 | 34780 ft | 481 kts | 69° |
| 2026-04-26 11:14 | 4.03510 | -154.27319 | 34776 ft | 480 kts | 68° |
| 2026-04-26 11:14 | 4.05752 | -154.20991 | 34741 ft | 481 kts | 68° |
| 2026-04-26 11:15 | 4.07989 | -154.14679 | 34734 ft | 483 kts | 68° |
| 2026-04-26 11:15 | 4.10220 | -154.08380 | 34763 ft | 484 kts | 69° |
| 2026-04-26 11:16 | 4.12468 | -154.02031 | 34785 ft | 483 kts | 68° |
| 2026-04-26 11:16 | 4.14711 | -153.95691 | 34758 ft | 484 kts | 68° |
| 2026-04-26 11:17 | 4.16965 | -153.89322 | 34740 ft | 484 kts | 68° |
| 2026-04-26 11:17 | 4.19196 | -153.83020 | 34756 ft | 483 kts | 68° |
| 2026-04-26 11:18 | 4.21438 | -153.76677 | 34774 ft | 482 kts | 69° |
| 2026-04-26 11:18 | 4.23685 | -153.70323 | 34748 ft | 483 kts | 69° |
| 2026-04-26 11:19 | 4.25922 | -153.63992 | 34733 ft | 485 kts | 69° |
| 2026-04-26 11:19 | 4.28172 | -153.57625 | 34752 ft | 485 kts | 68° |
| 2026-04-26 11:20 | 4.30033 | -153.52356 | 34755 ft | 483 kts | 68° |
| 2026-04-26 11:20 | 4.32653 | -153.44936 | 34738 ft | 484 kts | 69° |
| 2026-04-26 11:21 | 4.34903 | -153.38565 | 34721 ft | 486 kts | 68° |
| 2026-04-26 11:21 | 4.37135 | -153.32242 | 34737 ft | 486 kts | 69° |
| 2026-04-26 11:22 | 4.39399 | -153.25871 | 34765 ft | 484 kts | 66° |
| 2026-04-26 11:22 | 4.40985 | -153.22935 | 34690 ft | 480 kts | 51° |
| 2026-04-26 11:22 | 4.43305 | -153.20566 | 34777 ft | 471 kts | 34° |
| 2026-04-26 11:23 | 4.46122 | -153.18950 | 34730 ft | 466 kts | 18° |
| 2026-04-26 11:23 | 4.49266 | -153.18182 | 34729 ft | 457 kts | 2° |
| 2026-04-26 11:23 | 4.52411 | -153.18338 | 34771 ft | 450 kts | 346° |
| 2026-04-26 11:23 | 4.55447 | -153.19002 | 34731 ft | 451 kts | 345° |
| 2026-04-26 11:24 | 4.61658 | -153.20183 | 34750 ft | 451 kts | 347° |
| 2026-04-26 11:24 | 4.67823 | -153.21294 | 34754 ft | 450 kts | 347° |
| 2026-04-26 11:25 | 4.74040 | -153.22411 | 34723 ft | 450 kts | 347° |
| 2026-04-26 11:25 | 4.80222 | -153.23518 | 34723 ft | 451 kts | 347° |
| 2026-04-26 11:26 | 4.86379 | -153.24623 | 34753 ft | 450 kts | 347° |
| 2026-04-26 11:26 | 4.92557 | -153.25731 | 34761 ft | 449 kts | 347° |
| 2026-04-26 11:27 | 4.98748 | -153.26842 | 34739 ft | 449 kts | 347° |
| 2026-04-26 11:27 | 5.04918 | -153.27949 | 34744 ft | 452 kts | 346° |
| 2026-04-26 11:28 | 5.11126 | -153.29063 | 34775 ft | 450 kts | 346° |
| 2026-04-26 11:28 | 5.17304 | -153.30173 | 34767 ft | 451 kts | 347° |
| 2026-04-26 11:29 | 5.23493 | -153.31284 | 34739 ft | 451 kts | 346° |
| 2026-04-26 11:29 | 5.29704 | -153.32399 | 34754 ft | 452 kts | 346° |
| 2026-04-26 11:30 | 5.34856 | -153.33324 | 34776 ft | 450 kts | 346° |
| 2026-04-26 11:30 | 5.42080 | -153.34622 | 34761 ft | 451 kts | 346° |
| 2026-04-26 11:31 | 5.48316 | -153.35742 | 34737 ft | 452 kts | 346° |
| 2026-04-26 11:31 | 5.54509 | -153.36856 | 34755 ft | 453 kts | 346° |
| 2026-04-26 11:32 | 5.60695 | -153.37967 | 34780 ft | 451 kts | 346° |
| 2026-04-26 11:32 | 5.66919 | -153.39087 | 34759 ft | 452 kts | 346° |
| 2026-04-26 11:33 | 5.73159 | -153.40210 | 34735 ft | 453 kts | 346° |
| 2026-04-26 11:33 | 5.79357 | -153.41324 | 34749 ft | 453 kts | 346° |
| 2026-04-26 11:34 | 5.85577 | -153.42442 | 34777 ft | 452 kts | 346° |
| 2026-04-26 11:34 | 5.91796 | -153.43562 | 34747 ft | 453 kts | 346° |
| 2026-04-26 11:35 | 5.97996 | -153.44679 | 34713 ft | 453 kts | 346° |
| 2026-04-26 11:35 | 6.03174 | -153.45610 | 34743 ft | 453 kts | 346° |
| 2026-04-26 11:36 | 6.10447 | -153.46921 | 34757 ft | 453 kts | 346° |
| 2026-04-26 11:36 | 6.16669 | -153.48042 | 34752 ft | 452 kts | 346° |
| 2026-04-26 11:37 | 6.22915 | -153.49167 | 34722 ft | 454 kts | 346° |
| 2026-04-26 11:37 | 6.29136 | -153.50288 | 34727 ft | 454 kts | 346° |
| 2026-04-26 11:38 | 6.35351 | -153.51408 | 34759 ft | 453 kts | 346° |
| 2026-04-26 11:38 | 6.41581 | -153.52531 | 34755 ft | 453 kts | 346° |
| 2026-04-26 11:39 | 6.47797 | -153.53653 | 34719 ft | 454 kts | 346° |
| 2026-04-26 11:39 | 6.54051 | -153.54781 | 34717 ft | 455 kts | 346° |
| 2026-04-26 11:40 | 6.60297 | -153.55908 | 34749 ft | 456 kts | 346° |
| 2026-04-26 11:40 | 6.66528 | -153.57033 | 34755 ft | 453 kts | 346° |
| 2026-04-26 11:42 | 6.91523 | -153.61546 | 34754 ft | 453 kts | 346° |
| 2026-04-26 11:43 | 6.97755 | -153.62674 | 34734 ft | 456 kts | 346° |
| 2026-04-26 11:43 | 7.03993 | -153.63802 | 34717 ft | 455 kts | 346° |
| 2026-04-26 11:44 | 7.10238 | -153.64931 | 34733 ft | 456 kts | 346° |
| 2026-04-26 11:44 | 7.16474 | -153.66060 | 34763 ft | 455 kts | 346° |
| 2026-04-26 11:45 | 7.22728 | -153.67191 | 34751 ft | 455 kts | 346° |
| 2026-04-26 11:45 | 7.28962 | -153.68318 | 34735 ft | 455 kts | 346° |
| 2026-04-26 11:46 | 7.35220 | -153.69452 | 34756 ft | 455 kts | 346° |
| 2026-04-26 11:46 | 7.41454 | -153.70579 | 34781 ft | 454 kts | 345° |
| 2026-04-26 11:47 | 7.47682 | -153.71709 | 34761 ft | 454 kts | 345° |
| 2026-04-26 11:47 | 7.53957 | -153.72844 | 34743 ft | 455 kts | 345° |
| 2026-04-26 11:48 | 7.60194 | -153.73976 | 34766 ft | 455 kts | 345° |
| 2026-04-26 11:48 | 7.66439 | -153.75107 | 34787 ft | 453 kts | 345° |
| 2026-04-26 11:49 | 7.72666 | -153.76237 | 34759 ft | 454 kts | 345° |
| 2026-04-26 11:49 | 7.78876 | -153.77364 | 34741 ft | 455 kts | 345° |
| 2026-04-26 11:50 | 7.85151 | -153.78502 | 34764 ft | 455 kts | 345° |
| 2026-04-26 11:50 | 7.91415 | -153.79639 | 34788 ft | 455 kts | 345° |
| 2026-04-26 11:51 | 7.97627 | -153.80768 | 34762 ft | 454 kts | 345° |
| 2026-04-26 11:51 | 8.03900 | -153.81906 | 34741 ft | 456 kts | 345° |
| 2026-04-26 11:52 | 8.09099 | -153.82851 | 34776 ft | 455 kts | 345° |
| 2026-04-26 11:52 | 8.16373 | -153.84172 | 34786 ft | 454 kts | 345° |
| 2026-04-26 11:53 | 8.22626 | -153.85310 | 34762 ft | 454 kts | 345° |
| 2026-04-26 11:54 | 8.31994 | -153.87013 | 34777 ft | 455 kts | 345° |
| 2026-04-26 11:54 | 8.38240 | -153.88150 | 34744 ft | 454 kts | 344° |
| 2026-04-26 11:55 | 8.44448 | -153.89279 | 34743 ft | 454 kts | 344° |
| 2026-04-26 11:55 | 8.50662 | -153.90411 | 34775 ft | 453 kts | 344° |
| 2026-04-26 11:56 | 8.56891 | -153.91547 | 34786 ft | 452 kts | 344° |
| 2026-04-26 11:56 | 8.63112 | -153.92679 | 34752 ft | 452 kts | 344° |
| 2026-04-26 11:57 | 8.69345 | -153.93816 | 34738 ft | 455 kts | 344° |
| 2026-04-26 11:57 | 8.75581 | -153.94952 | 34764 ft | 455 kts | 345° |
| 2026-04-26 11:58 | 8.81831 | -153.96091 | 34786 ft | 454 kts | 344° |
| 2026-04-26 11:58 | 8.88045 | -153.97224 | 34755 ft | 454 kts | 344° |
| 2026-04-26 11:59 | 8.94286 | -153.98364 | 34734 ft | 453 kts | 344° |
| 2026-04-26 11:59 | 9.00491 | -153.99497 | 34758 ft | 454 kts | 344° |
| 2026-04-26 12:00 | 9.06697 | -154.00630 | 34787 ft | 452 kts | 344° |
| 2026-04-26 12:00 | 9.12945 | -154.01772 | 34764 ft | 453 kts | 344° |
| 2026-04-26 12:01 | 9.19171 | -154.02910 | 34737 ft | 454 kts | 344° |
| 2026-04-26 12:01 | 9.25381 | -154.04045 | 34754 ft | 453 kts | 344° |
| 2026-04-26 12:02 | 9.31598 | -154.05182 | 34784 ft | 452 kts | 344° |
| 2026-04-26 12:02 | 9.37799 | -154.06316 | 34766 ft | 452 kts | 344° |
| 2026-04-26 12:03 | 9.44042 | -154.07459 | 34750 ft | 454 kts | 344° |
| 2026-04-26 12:03 | 9.50264 | -154.08598 | 34761 ft | 455 kts | 344° |
| 2026-04-26 12:04 | 9.56506 | -154.09741 | 34791 ft | 453 kts | 344° |
| 2026-04-26 12:04 | 9.62714 | -154.10878 | 34781 ft | 453 kts | 344° |
| 2026-04-26 12:05 | 9.68982 | -154.12027 | 34755 ft | 454 kts | 344° |
| 2026-04-26 12:05 | 9.75171 | -154.13162 | 34773 ft | 453 kts | 343° |
| 2026-04-26 12:06 | 9.81392 | -154.14304 | 34797 ft | 454 kts | 344° |
| 2026-04-26 12:06 | 9.87642 | -154.15449 | 34775 ft | 454 kts | 343° |
| 2026-04-26 12:07 | 9.93901 | -154.16600 | 34760 ft | 454 kts | 343° |
| 2026-04-26 12:07 | 10.00130 | -154.17743 | 34771 ft | 454 kts | 343° |
| 2026-04-26 12:08 | 10.06350 | -154.18886 | 34786 ft | 453 kts | 344° |
| 2026-04-26 12:08 | 10.12580 | -154.20030 | 34763 ft | 452 kts | 343° |
| 2026-04-26 12:09 | 10.18784 | -154.21172 | 34735 ft | 454 kts | 343° |
| 2026-04-26 12:09 | 10.25024 | -154.22319 | 34743 ft | 454 kts | 343° |
| 2026-04-26 12:10 | 10.31222 | -154.23459 | 34778 ft | 454 kts | 343° |
| 2026-04-26 12:10 | 10.37471 | -154.24609 | 34778 ft | 453 kts | 343° |
| 2026-04-26 12:11 | 10.43671 | -154.25752 | 34748 ft | 452 kts | 343° |
| 2026-04-26 12:11 | 10.49865 | -154.26892 | 34749 ft | 452 kts | 343° |
| 2026-04-26 12:12 | 10.56085 | -154.28040 | 34781 ft | 454 kts | 343° |
| 2026-04-26 12:12 | 10.62293 | -154.29182 | 34788 ft | 451 kts | 343° |
| 2026-04-26 12:13 | 10.68479 | -154.30325 | 34760 ft | 452 kts | 343° |
| 2026-04-26 12:13 | 10.74705 | -154.31473 | 34759 ft | 453 kts | 343° |
| 2026-04-26 12:14 | 10.80913 | -154.32619 | 34787 ft | 452 kts | 343° |
| 2026-04-26 12:14 | 10.87099 | -154.33762 | 34788 ft | 450 kts | 343° |
| 2026-04-26 12:15 | 10.93280 | -154.34904 | 34759 ft | 452 kts | 343° |
| 2026-04-26 12:15 | 10.99501 | -154.36053 | 34772 ft | 453 kts | 343° |
| 2026-04-26 12:16 | 11.05715 | -154.37204 | 34802 ft | 451 kts | 343° |
| 2026-04-26 12:16 | 11.11889 | -154.38345 | 34778 ft | 451 kts | 342° |
| 2026-04-26 12:17 | 11.18123 | -154.39499 | 34754 ft | 453 kts | 343° |
| 2026-04-26 12:17 | 11.24320 | -154.40646 | 34772 ft | 452 kts | 343° |
| 2026-04-26 12:18 | 11.30481 | -154.41785 | 34796 ft | 451 kts | 343° |
| 2026-04-26 12:18 | 11.36714 | -154.42937 | 34769 ft | 451 kts | 343° |
| 2026-04-26 12:19 | 11.42913 | -154.44083 | 34757 ft | 452 kts | 343° |
| 2026-04-26 12:19 | 11.49113 | -154.45227 | 34783 ft | 452 kts | 343° |
| 2026-04-26 12:20 | 11.55313 | -154.46374 | 34795 ft | 451 kts | 343° |
| 2026-04-26 12:20 | 11.61525 | -154.47523 | 34769 ft | 452 kts | 343° |
| 2026-04-26 12:21 | 11.67712 | -154.48669 | 34778 ft | 451 kts | 343° |
| 2026-04-26 12:21 | 11.73880 | -154.49811 | 34810 ft | 450 kts | 342° |
| 2026-04-26 12:22 | 11.80100 | -154.50964 | 34790 ft | 451 kts | 343° |
| 2026-04-26 12:22 | 11.86270 | -154.52107 | 34771 ft | 452 kts | 343° |
| 2026-04-26 12:23 | 11.92479 | -154.53259 | 34795 ft | 452 kts | 343° |
| 2026-04-26 12:23 | 11.98701 | -154.54413 | 34816 ft | 451 kts | 343° |
| 2026-04-26 12:24 | 12.04896 | -154.55562 | 34790 ft | 450 kts | 343° |
| 2026-04-26 12:24 | 12.11041 | -154.56705 | 34770 ft | 451 kts | 342° |
| 2026-04-26 12:25 | 12.20343 | -154.58432 | 34758 ft | 451 kts | 343° |
| 2026-04-26 12:25 | 12.26544 | -154.59586 | 34771 ft | 451 kts | 343° |
| 2026-04-26 12:26 | 12.32700 | -154.60731 | 34798 ft | 452 kts | 343° |
| 2026-04-26 12:26 | 12.38914 | -154.61887 | 34778 ft | 450 kts | 343° |
| 2026-04-26 12:27 | 12.45068 | -154.63032 | 34755 ft | 450 kts | 342° |
| 2026-04-26 12:27 | 12.51256 | -154.64186 | 34781 ft | 450 kts | 342° |
| 2026-04-26 12:28 | 12.57424 | -154.65334 | 34817 ft | 448 kts | 342° |
| 2026-04-26 12:28 | 12.63576 | -154.66481 | 34785 ft | 449 kts | 342° |
| 2026-04-26 12:29 | 12.69750 | -154.67635 | 34785 ft | 451 kts | 342° |
| 2026-04-26 12:30 | 12.79026 | -154.69367 | 34782 ft | 450 kts | 342° |
| 2026-04-26 12:30 | 12.85160 | -154.70511 | 34803 ft | 449 kts | 342° |
| 2026-04-26 12:31 | 12.94415 | -154.72241 | 34787 ft | 449 kts | 342° |
| 2026-04-26 12:31 | 13.00530 | -154.73384 | 34820 ft | 448 kts | 342° |
| 2026-04-26 12:32 | 13.06690 | -154.74538 | 34826 ft | 448 kts | 342° |
| 2026-04-26 12:33 | 13.15918 | -154.76265 | 34832 ft | 448 kts | 342° |
| 2026-04-26 12:33 | 13.22090 | -154.77420 | 34813 ft | 449 kts | 342° |
| 2026-04-26 12:34 | 13.28260 | -154.78578 | 34791 ft | 449 kts | 342° |
| 2026-04-26 12:34 | 13.34427 | -154.79735 | 34804 ft | 448 kts | 342° |
| 2026-04-26 12:35 | 13.40571 | -154.80887 | 34840 ft | 447 kts | 342° |
| 2026-04-26 12:35 | 13.46678 | -154.82033 | 34817 ft | 448 kts | 342° |
| 2026-04-26 12:36 | 13.52842 | -154.83192 | 34792 ft | 449 kts | 342° |
| 2026-04-26 12:36 | 13.59015 | -154.84352 | 34813 ft | 449 kts | 342° |
| 2026-04-26 12:37 | 13.65143 | -154.85503 | 34839 ft | 447 kts | 342° |
| 2026-04-26 12:37 | 13.71276 | -154.86658 | 34824 ft | 446 kts | 342° |
| 2026-04-26 12:38 | 13.77426 | -154.87816 | 34800 ft | 449 kts | 342° |
| 2026-04-26 12:38 | 13.83587 | -154.88976 | 34812 ft | 449 kts | 342° |
| 2026-04-26 12:39 | 13.89696 | -154.90128 | 34844 ft | 448 kts | 342° |
| 2026-04-26 12:39 | 13.95844 | -154.91286 | 34830 ft | 447 kts | 342° |
| 2026-04-26 12:40 | 14.01978 | -154.92442 | 34807 ft | 447 kts | 342° |
| 2026-04-26 12:40 | 14.08099 | -154.93599 | 34817 ft | 447 kts | 342° |
| 2026-04-26 12:41 | 14.14230 | -154.94756 | 34851 ft | 447 kts | 342° |
| 2026-04-26 12:41 | 14.20392 | -154.95921 | 34829 ft | 447 kts | 342° |
| 2026-04-26 12:42 | 14.26507 | -154.97076 | 34804 ft | 449 kts | 342° |
| 2026-04-26 12:42 | 14.32664 | -154.98242 | 34826 ft | 448 kts | 342° |
| 2026-04-26 12:43 | 14.38812 | -154.99405 | 34853 ft | 446 kts | 342° |
| 2026-04-26 12:43 | 14.44947 | -155.00566 | 34833 ft | 446 kts | 342° |
| 2026-04-26 12:44 | 14.51068 | -155.01726 | 34812 ft | 447 kts | 342° |
| 2026-04-26 12:44 | 14.57169 | -155.02884 | 34837 ft | 447 kts | 342° |
| 2026-04-26 12:45 | 14.63316 | -155.04048 | 34856 ft | 446 kts | 342° |
| 2026-04-26 12:45 | 14.69426 | -155.05208 | 34827 ft | 446 kts | 342° |
| 2026-04-26 12:46 | 14.75567 | -155.06375 | 34823 ft | 447 kts | 342° |
| 2026-04-26 12:46 | 14.81692 | -155.07539 | 34852 ft | 448 kts | 342° |
| 2026-04-26 12:47 | 14.87820 | -155.08704 | 34851 ft | 445 kts | 341° |
| 2026-04-26 12:47 | 14.93933 | -155.09866 | 34823 ft | 446 kts | 341° |
| 2026-04-26 12:48 | 15.00045 | -155.11031 | 34838 ft | 446 kts | 342° |
| 2026-04-26 12:48 | 15.06153 | -155.12193 | 34862 ft | 444 kts | 342° |
| 2026-04-26 12:49 | 15.12254 | -155.13356 | 34842 ft | 445 kts | 342° |
| 2026-04-26 12:49 | 15.18395 | -155.14528 | 34821 ft | 446 kts | 341° |
| 2026-04-26 12:50 | 15.24509 | -155.15694 | 34852 ft | 448 kts | 342° |
| 2026-04-26 12:50 | 15.30631 | -155.16861 | 34868 ft | 446 kts | 341° |
| 2026-04-26 12:51 | 15.36751 | -155.18031 | 34840 ft | 446 kts | 341° |
| 2026-04-26 12:51 | 15.42858 | -155.19199 | 34831 ft | 447 kts | 341° |
| 2026-04-26 12:52 | 15.48960 | -155.20366 | 34860 ft | 446 kts | 342° |
| 2026-04-26 12:52 | 15.55077 | -155.21536 | 34866 ft | 445 kts | 342° |
| 2026-04-26 12:53 | 15.61184 | -155.22705 | 34839 ft | 444 kts | 342° |
| 2026-04-26 12:53 | 15.67292 | -155.23875 | 34835 ft | 446 kts | 341° |
| 2026-04-26 12:54 | 15.73391 | -155.25044 | 34869 ft | 446 kts | 341° |
| 2026-04-26 12:54 | 15.79507 | -155.26218 | 34867 ft | 445 kts | 342° |
| 2026-04-26 12:55 | 15.85628 | -155.27393 | 34830 ft | 447 kts | 342° |
| 2026-04-26 12:55 | 15.91766 | -155.28572 | 34852 ft | 447 kts | 342° |
| 2026-04-26 12:56 | 15.97873 | -155.29746 | 34873 ft | 445 kts | 342° |
| 2026-04-26 12:56 | 16.03995 | -155.30922 | 34852 ft | 446 kts | 342° |
| 2026-04-26 12:57 | 16.10087 | -155.32095 | 34853 ft | 445 kts | 342° |
| 2026-04-26 12:57 | 16.16194 | -155.33270 | 34880 ft | 445 kts | 342° |
| 2026-04-26 12:58 | 16.25374 | -155.35040 | 34879 ft | 447 kts | 342° |
| 2026-04-26 12:58 | 16.31509 | -155.36223 | 34866 ft | 446 kts | 342° |
| 2026-04-26 12:59 | 16.37613 | -155.37401 | 34848 ft | 447 kts | 342° |
| 2026-04-26 12:59 | 16.43725 | -155.38582 | 34864 ft | 446 kts | 342° |
| 2026-04-26 13:00 | 16.49843 | -155.39763 | 34879 ft | 442 kts | 342° |
| 2026-04-26 13:00 | 16.55914 | -155.40936 | 34851 ft | 445 kts | 342° |
| 2026-04-26 13:01 | 16.62022 | -155.42119 | 34860 ft | 445 kts | 342° |
| 2026-04-26 13:01 | 16.68112 | -155.43297 | 34883 ft | 445 kts | 342° |
| 2026-04-26 13:02 | 16.74257 | -155.44487 | 34858 ft | 446 kts | 342° |
| 2026-04-26 13:02 | 16.80351 | -155.45668 | 34860 ft | 446 kts | 342° |
| 2026-04-26 13:03 | 16.86453 | -155.46852 | 34886 ft | 444 kts | 342° |
| 2026-04-26 13:03 | 16.92571 | -155.48041 | 34887 ft | 444 kts | 342° |
| 2026-04-26 13:04 | 16.98638 | -155.49219 | 34862 ft | 444 kts | 342° |
| 2026-04-26 13:04 | 17.04727 | -155.50403 | 34869 ft | 445 kts | 342° |
| 2026-04-26 13:05 | 17.10827 | -155.51587 | 34903 ft | 445 kts | 342° |
| 2026-04-26 13:05 | 17.16953 | -155.52780 | 34887 ft | 444 kts | 342° |
| 2026-04-26 13:06 | 17.23038 | -155.53966 | 34864 ft | 444 kts | 342° |
| 2026-04-26 13:06 | 17.29111 | -155.55148 | 34889 ft | 443 kts | 342° |
| 2026-04-26 13:07 | 17.35189 | -155.56334 | 34876 ft | 444 kts | 342° |
| 2026-04-26 13:07 | 17.41301 | -155.57527 | 34863 ft | 444 kts | 342° |
| 2026-04-26 13:08 | 17.47394 | -155.58716 | 34887 ft | 444 kts | 342° |
| 2026-04-26 13:08 | 17.53466 | -155.59903 | 34891 ft | 443 kts | 342° |
| 2026-04-26 13:09 | 17.59567 | -155.61095 | 34859 ft | 444 kts | 342° |
| 2026-04-26 13:09 | 17.65645 | -155.62285 | 34867 ft | 445 kts | 342° |
| 2026-04-26 13:10 | 17.71732 | -155.63477 | 34897 ft | 443 kts | 342° |
| 2026-04-26 13:10 | 17.77808 | -155.64667 | 34880 ft | 443 kts | 342° |
| 2026-04-26 13:11 | 17.83881 | -155.65858 | 34895 ft | 446 kts | 342° |
| 2026-04-26 13:11 | 17.89979 | -155.67055 | 34919 ft | 443 kts | 342° |
| 2026-04-26 13:12 | 17.96068 | -155.68249 | 34899 ft | 443 kts | 342° |
| 2026-04-26 13:12 | 18.02150 | -155.69444 | 34907 ft | 443 kts | 342° |
| 2026-04-26 13:13 | 18.08167 | -155.70628 | 34917 ft | 440 kts | 342° |
| 2026-04-26 13:13 | 18.14272 | -155.71858 | 34920 ft | 443 kts | 342° |
| 2026-04-26 13:14 | 18.20305 | -155.73097 | 34906 ft | 442 kts | 342° |
| 2026-04-26 13:14 | 18.26380 | -155.74345 | 34912 ft | 442 kts | 342° |
| 2026-04-26 13:15 | 18.32423 | -155.75588 | 34912 ft | 440 kts | 342° |
| 2026-04-26 13:15 | 18.38464 | -155.76831 | 34905 ft | 440 kts | 342° |
| 2026-04-26 13:16 | 18.44464 | -155.78067 | 34903 ft | 439 kts | 343° |
| 2026-04-26 13:16 | 18.50516 | -155.79315 | 34923 ft | 440 kts | 343° |
| 2026-04-26 13:17 | 18.59541 | -155.81175 | 34925 ft | 440 kts | 343° |
| 2026-04-26 13:18 | 18.68550 | -155.83035 | 34916 ft | 440 kts | 343° |
| 2026-04-26 13:19 | 18.77579 | -155.84903 | 34909 ft | 439 kts | 343° |
| 2026-04-26 13:19 | 18.83626 | -155.86154 | 34917 ft | 438 kts | 343° |
| 2026-04-26 13:20 | 18.89652 | -155.87402 | 34898 ft | 440 kts | 344° |
| 2026-04-26 13:20 | 18.95654 | -155.88644 | 34903 ft | 439 kts | 343° |
| 2026-04-26 13:21 | 19.01694 | -155.89897 | 34923 ft | 438 kts | 344° |
| 2026-04-26 13:21 | 19.07653 | -155.91135 | 34311 ft | 430 kts | 344° |
| 2026-04-26 13:21 | 19.10568 | -155.91742 | 33768 ft | 426 kts | 345° |
| 2026-04-26 13:22 | 19.13474 | -155.92345 | 33583 ft | 417 kts | 345° |
| 2026-04-26 13:22 | 19.16320 | -155.92937 | 33311 ft | 414 kts | 345° |
| 2026-04-26 13:22 | 19.19175 | -155.93529 | 33053 ft | 416 kts | 345° |
| 2026-04-26 13:22 | 19.22035 | -155.94124 | 32813 ft | 420 kts | 345° |
| 2026-04-26 13:23 | 19.24917 | -155.94724 | 32571 ft | 420 kts | 346° |
| 2026-04-26 13:23 | 19.27785 | -155.95322 | 32330 ft | 420 kts | 346° |
| 2026-04-26 13:23 | 19.30694 | -155.95927 | 32066 ft | 419 kts | 346° |
| 2026-04-26 13:23 | 19.33558 | -155.96524 | 31834 ft | 423 kts | 346° |
| 2026-04-26 13:24 | 19.36500 | -155.97137 | 31212 ft | 430 kts | 347° |
| 2026-04-26 13:24 | 19.39457 | -155.97754 | 30545 ft | 432 kts | 347° |
| 2026-04-26 13:24 | 19.42403 | -155.98367 | 30002 ft | 429 kts | 348° |
| 2026-04-26 13:24 | 19.45353 | -155.98982 | 29416 ft | 428 kts | 348° |
| 2026-04-26 13:25 | 19.48256 | -155.99587 | 28839 ft | 425 kts | 348° |
| 2026-04-26 13:25 | 19.51193 | -156.00200 | 28200 ft | 424 kts | 348° |
| 2026-04-26 13:25 | 19.54077 | -156.00803 | 27601 ft | 422 kts | 348° |
| 2026-04-26 13:25 | 19.56963 | -156.01405 | 27034 ft | 419 kts | 349° |
| 2026-04-26 13:26 | 19.59792 | -156.01996 | 26535 ft | 414 kts | 349° |
| 2026-04-26 13:26 | 19.62598 | -156.02582 | 26061 ft | 409 kts | 349° |
| 2026-04-26 13:26 | 19.65385 | -156.03165 | 25578 ft | 404 kts | 349° |
| 2026-04-26 13:26 | 19.68120 | -156.03737 | 25107 ft | 399 kts | 349° |
| 2026-04-26 13:27 | 19.70866 | -156.04314 | 24602 ft | 395 kts | 348° |
| 2026-04-26 13:27 | 19.73444 | -156.05222 | 24056 ft | 393 kts | 338° |
| 2026-04-26 13:27 | 19.75973 | -156.06325 | 23526 ft | 389 kts | 339° |
| 2026-04-26 13:27 | 19.78486 | -156.07347 | 22964 ft | 386 kts | 345° |
| 2026-04-26 13:28 | 19.81125 | -156.07645 | 22393 ft | 381 kts | 4° |
| 2026-04-26 13:28 | 19.83703 | -156.07066 | 21792 ft | 379 kts | 21° |
| 2026-04-26 13:28 | 19.85971 | -156.05693 | 21272 ft | 374 kts | 33° |
| 2026-04-26 13:28 | 19.88164 | -156.04262 | 20756 ft | 370 kts | 31° |
| 2026-04-26 13:29 | 19.90397 | -156.02858 | 20235 ft | 367 kts | 30° |
| 2026-04-26 13:29 | 19.91838 | -156.01959 | 19903 ft | 364 kts | 30° |
| 2026-04-26 13:29 | 19.94728 | -156.00157 | 19257 ft | 358 kts | 30° |
| 2026-04-26 13:29 | 19.96883 | -155.98811 | 18780 ft | 356 kts | 31° |
| 2026-04-26 13:30 | 19.99005 | -155.97488 | 18300 ft | 354 kts | 31° |
| 2026-04-26 13:30 | 20.01125 | -155.96164 | 17823 ft | 351 kts | 31° |
| 2026-04-26 13:30 | 20.03227 | -155.94852 | 17364 ft | 349 kts | 30° |
| 2026-04-26 13:30 | 20.05293 | -155.93562 | 16900 ft | 346 kts | 30° |
| 2026-04-26 13:31 | 20.07373 | -155.92262 | 16430 ft | 345 kts | 30° |
| 2026-04-26 13:31 | 20.09438 | -155.90971 | 15963 ft | 344 kts | 30° |
| 2026-04-26 13:31 | 20.11519 | -155.89700 | 15485 ft | 341 kts | 26° |
| 2026-04-26 13:31 | 20.13771 | -155.89046 | 15023 ft | 338 kts | 5° |
| 2026-04-26 13:32 | 20.16106 | -155.89340 | 14554 ft | 338 kts | 342° |
| 2026-04-26 13:32 | 20.18151 | -155.90536 | 14081 ft | 339 kts | 322° |
| 2026-04-26 13:32 | 20.19696 | -155.92441 | 13171 ft | 353 kts | 302° |
| 2026-04-26 13:32 | 20.20515 | -155.94939 | 12433 ft | 358 kts | 278° |
| 2026-04-26 13:33 | 20.20396 | -155.97537 | 12057 ft | 351 kts | 258° |
| 2026-04-26 13:33 | 20.19413 | -155.99876 | 11653 ft | 346 kts | 236° |
| 2026-04-26 13:33 | 20.17743 | -156.01623 | 11230 ft | 341 kts | 214° |
| 2026-04-26 13:33 | 20.15584 | -156.02589 | 10815 ft | 335 kts | 191° |
| 2026-04-26 13:34 | 20.13258 | -156.02791 | 10455 ft | 328 kts | 182° |
| 2026-04-26 13:34 | 20.11013 | -156.02835 | 10225 ft | 322 kts | 173° |
| 2026-04-26 13:34 | 20.08919 | -156.02042 | 10256 ft | 315 kts | 146° |
| 2026-04-26 13:34 | 20.07837 | -156.00996 | 10242 ft | 312 kts | 127° |
| 2026-04-26 13:35 | 20.06869 | -155.98183 | 10202 ft | 309 kts | 90° |
| 2026-04-26 13:35 | 20.07324 | -155.95999 | 10169 ft | 300 kts | 62° |
| 2026-04-26 13:35 | 20.08648 | -155.94383 | 10094 ft | 286 kts | 33° |
| 2026-04-26 13:35 | 20.10471 | -155.93710 | 9967 ft | 276 kts | 4° |
| 2026-04-26 13:36 | 20.12326 | -155.94124 | 9797 ft | 270 kts | 332° |
| 2026-04-26 13:36 | 20.13652 | -155.95470 | 9601 ft | 266 kts | 300° |
| 2026-04-26 13:36 | 20.14093 | -155.97350 | 9380 ft | 264 kts | 267° |
| 2026-04-26 13:36 | 20.13512 | -155.99175 | 9155 ft | 264 kts | 234° |
| 2026-04-26 13:37 | 20.12074 | -156.00386 | 8925 ft | 264 kts | 200° |
| 2026-04-26 13:37 | 20.10278 | -156.00574 | 8696 ft | 261 kts | 167° |
| 2026-04-26 13:37 | 20.08757 | -155.99686 | 8768 ft | 254 kts | 131° |
| 2026-04-26 13:37 | 20.07982 | -155.97983 | 9086 ft | 258 kts | 97° |
| 2026-04-26 13:38 | 20.08224 | -155.96130 | 9344 ft | 258 kts | 64° |
| 2026-04-26 13:38 | 20.09403 | -155.94696 | 9487 ft | 261 kts | 32° |
| 2026-04-26 13:38 | 20.11102 | -155.94171 | 9502 ft | 258 kts | 359° |
| 2026-04-26 13:38 | 20.12813 | -155.94736 | 9520 ft | 260 kts | 325° |
| 2026-04-26 13:39 | 20.13944 | -155.96202 | 9538 ft | 261 kts | 294° |
| 2026-04-26 13:39 | 20.14257 | -155.98085 | 9333 ft | 261 kts | 265° |
| 2026-04-26 13:39 | 20.13677 | -155.99870 | 9178 ft | 255 kts | 235° |
| 2026-04-26 13:39 | 20.12380 | -156.01080 | 9076 ft | 248 kts | 204° |
| 2026-04-26 13:40 | 20.10718 | -156.01494 | 9034 ft | 242 kts | 185° |
| 2026-04-26 13:40 | 20.09021 | -156.01672 | 8974 ft | 242 kts | 184° |
| 2026-04-26 13:40 | 20.07341 | -156.01816 | 8901 ft | 241 kts | 184° |
| 2026-04-26 13:40 | 20.05661 | -156.01949 | 8845 ft | 241 kts | 183° |
| 2026-04-26 13:41 | 20.03990 | -156.02077 | 8800 ft | 241 kts | 184° |
| 2026-04-26 13:41 | 20.02316 | -156.02203 | 8758 ft | 241 kts | 183° |
| 2026-04-26 13:41 | 20.00636 | -156.02328 | 8728 ft | 241 kts | 183° |
| 2026-04-26 13:41 | 19.98949 | -156.02455 | 8712 ft | 241 kts | 183° |
| 2026-04-26 13:42 | 19.97254 | -156.02582 | 8679 ft | 243 kts | 183° |
| 2026-04-26 13:42 | 19.95548 | -156.02710 | 8455 ft | 243 kts | 183° |
| 2026-04-26 13:42 | 19.93879 | -156.02837 | 8303 ft | 239 kts | 183° |
| 2026-04-26 13:42 | 19.92227 | -156.02960 | 8213 ft | 232 kts | 183° |
| 2026-04-26 13:43 | 19.90629 | -156.03079 | 8161 ft | 229 kts | 183° |
| 2026-04-26 13:43 | 19.89040 | -156.03197 | 8132 ft | 227 kts | 183° |
| 2026-04-26 13:43 | 19.87468 | -156.03096 | 8095 ft | 224 kts | 159° |
| 2026-04-26 13:43 | 19.86226 | -156.02170 | 8108 ft | 221 kts | 125° |
| 2026-04-26 13:44 | 19.85683 | -156.00676 | 8064 ft | 220 kts | 91° |
| 2026-04-26 13:44 | 19.86038 | -155.99118 | 8022 ft | 218 kts | 58° |
| 2026-04-26 13:44 | 19.86942 | -155.97850 | 8044 ft | 217 kts | 40° |
| 2026-04-26 13:44 | 19.88324 | -155.97209 | 8108 ft | 218 kts | 9° |
| 2026-04-26 13:45 | 19.89904 | -155.97023 | 8027 ft | 243 kts | 6° |
| 2026-04-26 13:45 | 19.91593 | -155.96838 | 7773 ft | 247 kts | 6° |
| 2026-04-26 13:45 | 19.93335 | -155.96654 | 7504 ft | 247 kts | 6° |
| 2026-04-26 13:45 | 19.95027 | -155.96478 | 7244 ft | 247 kts | 6° |
| 2026-04-26 13:46 | 19.96767 | -155.96295 | 6973 ft | 247 kts | 6° |
| 2026-04-26 13:46 | 19.98472 | -155.96118 | 6709 ft | 247 kts | 6° |
| 2026-04-26 13:46 | 20.00187 | -155.96001 | 6439 ft | 247 kts | 3° |
| 2026-04-26 13:46 | 20.01910 | -155.95924 | 6176 ft | 247 kts | 4° |
| 2026-04-26 13:47 | 20.03646 | -155.95844 | 5909 ft | 247 kts | 4° |
| 2026-04-26 13:47 | 20.05368 | -155.95761 | 5644 ft | 248 kts | 4° |
| 2026-04-26 13:47 | 20.07086 | -155.95688 | 5381 ft | 248 kts | 4° |
| 2026-04-26 13:47 | 20.08830 | -155.95613 | 5113 ft | 247 kts | 4° |
| 2026-04-26 13:48 | 20.10559 | -155.95543 | 4848 ft | 247 kts | 4° |
| 2026-04-26 13:48 | 20.12263 | -155.95479 | 4585 ft | 247 kts | 4° |
| 2026-04-26 13:48 | 20.13994 | -155.95418 | 4319 ft | 247 kts | 3° |
| 2026-04-26 13:48 | 20.15714 | -155.95575 | 4039 ft | 248 kts | 342° |
| 2026-04-26 13:49 | 20.17105 | -155.96582 | 4013 ft | 240 kts | 310° |
| 2026-04-26 13:49 | 20.17809 | -155.98230 | 4035 ft | 250 kts | 279° |
| 2026-04-26 13:49 | 20.17646 | -156.00018 | 3997 ft | 241 kts | 248° |
| 2026-04-26 13:49 | 20.16645 | -156.01434 | 4035 ft | 247 kts | 216° |
| 2026-04-26 13:50 | 20.15100 | -156.02130 | 4000 ft | 237 kts | 185° |
| 2026-04-26 13:50 | 20.13453 | -156.02139 | 4038 ft | 243 kts | 179° |
| 2026-04-26 13:50 | 20.11754 | -156.02179 | 4006 ft | 238 kts | 180° |
| 2026-04-26 13:50 | 20.10119 | -156.02049 | 4012 ft | 238 kts | 172° |
| 2026-04-26 13:51 | 20.08446 | -156.01932 | 4021 ft | 240 kts | 176° |
| 2026-04-26 13:51 | 20.06783 | -156.01914 | 3995 ft | 237 kts | 179° |
| 2026-04-26 13:51 | 20.05092 | -156.01955 | 4028 ft | 243 kts | 180° |
| 2026-04-26 13:51 | 20.03434 | -156.02037 | 3991 ft | 235 kts | 181° |
| 2026-04-26 13:52 | 20.01834 | -156.02141 | 3995 ft | 224 kts | 182° |
| 2026-04-26 13:52 | 20.00304 | -156.02257 | 3992 ft | 214 kts | 183° |
| 2026-04-26 13:52 | 19.98841 | -156.02373 | 3998 ft | 207 kts | 183° |
| 2026-04-26 13:52 | 19.97384 | -156.02493 | 3690 ft | 218 kts | 183° |
| 2026-04-26 13:53 | 19.95828 | -156.02626 | 3245 ft | 224 kts | 183° |
| 2026-04-26 13:53 | 19.94294 | -156.02760 | 2998 ft | 217 kts | 184° |
| 2026-04-26 13:53 | 19.92821 | -156.02890 | 2753 ft | 211 kts | 184° |
| 2026-04-26 13:53 | 19.91359 | -156.03020 | 2557 ft | 204 kts | 183° |
| 2026-04-26 13:54 | 19.89974 | -156.03142 | 2397 ft | 197 kts | 183° |
| 2026-04-26 13:54 | 19.88667 | -156.03258 | 2340 ft | 178 kts | 183° |
| 2026-04-26 13:54 | 19.87441 | -156.03366 | 2147 ft | 171 kts | 183° |
| 2026-04-26 13:55 | 19.85180 | -156.03564 | 1951 ft | 163 kts | 183° |
| 2026-04-26 13:55 | 19.84436 | -156.03632 | 1796 ft | 155 kts | 183° |
| 2026-04-26 13:55 | 19.82028 | -156.03844 | 1359 ft | 146 kts | 182° |
| 2026-04-26 13:56 | 19.81011 | -156.03934 | 1166 ft | 146 kts | 182° |
| 2026-04-26 13:56 | 19.80002 | -156.04022 | 975 ft | 146 kts | 182° |
| 2026-04-26 13:56 | 19.78973 | -156.04115 | 782 ft | 146 kts | 182° |
| 2026-04-26 13:56 | 19.77960 | -156.04204 | 593 ft | 146 kts | 182° |
| 2026-04-26 13:57 | 19.76945 | -156.04294 | 404 ft | 146 kts | 182° |
| 2026-04-26 13:57 | 19.75855 | -156.04387 | 267 ft | 153 kts | 184° |
| 2026-04-26 13:57 | 19.74836 | -156.04497 | 72 ft | 145 kts | 180° |